createdAt,value
2023-04-06T00:00:46.455Z,5.10
2023-04-06T00:03:15.782Z,4.82
2023-04-06T00:05:46.148Z,5.47
2023-04-06T00:08:16.270Z,4.60
2023-04-06T00:10:45.020Z,3.53
2023-04-06T00:13:14.077Z,4.97
2023-04-06T00:15:43.164Z,6.45
2023-04-06T00:18:13.693Z,4.82
2023-04-06T00:20:42.789Z,5.05
2023-04-06T00:23:11.781Z,4.85
2023-04-06T00:25:40.555Z,4.70
2023-04-06T00:28:09.817Z,4.85
2023-04-06T00:30:38.905Z,4.53
2023-04-06T00:33:08.192Z,5.03
2023-04-06T00:35:39.999Z,5.73
2023-04-06T00:38:09.109Z,5.10
2023-04-06T00:40:37.752Z,4.85
2023-04-06T00:43:06.951Z,4.43
2023-04-06T00:45:36.156Z,4.88
2023-04-06T00:48:05.488Z,5.20
2023-04-06T00:50:34.596Z,4.17
2023-04-06T00:53:05.242Z,5.22
2023-04-06T00:58:03.124Z,5.38
2023-04-06T01:00:37.291Z,4.88
2023-04-06T01:03:08.040Z,4.82
2023-04-06T01:05:45.429Z,5.28
2023-04-06T01:08:23.513Z,4.88
2023-04-06T01:10:56.108Z,5.35
2023-04-06T01:13:28.330Z,4.10
2023-04-06T01:16:02.609Z,5.05
2023-04-06T01:18:46.068Z,4.63
2023-04-06T01:21:29.301Z,5.00
2023-04-06T01:24:25.945Z,4.72
2023-04-06T01:27:05.940Z,4.82
2023-04-06T01:30:01.748Z,5.30
2023-04-06T01:32:46.092Z,4.30
2023-04-06T01:35:18.441Z,4.80
2023-04-06T01:37:56.898Z,5.18
2023-04-06T01:40:33.933Z,4.72
2023-04-06T01:43:03.295Z,5.22
2023-04-06T01:45:48.760Z,5.35
2023-04-06T01:48:22.174Z,4.43
2023-04-06T01:50:52.166Z,4.57
2023-04-06T01:53:27.796Z,4.22
2023-04-06T01:56:13.663Z,4.47
2023-04-06T01:58:49.508Z,4.50
2023-04-06T02:01:19.790Z,5.03
2023-04-06T02:06:29.103Z,5.47
2023-04-06T02:08:58.201Z,5.07
2023-04-06T02:11:28.687Z,5.25
2023-04-06T02:13:58.290Z,5.05
2023-04-06T02:16:31.932Z,5.20
2023-04-06T02:19:01.283Z,5.80
2023-04-06T02:21:30.888Z,5.75
2023-04-06T02:24:00.049Z,6.13
2023-04-06T02:26:30.765Z,4.80
2023-04-06T02:29:00.023Z,5.07
2023-04-06T02:31:28.636Z,6.75
2023-04-06T02:33:58.358Z,6.97
2023-04-06T02:36:28.420Z,6.60
2023-04-06T02:38:57.737Z,6.35
2023-04-06T02:41:27.857Z,6.38
2023-04-06T02:43:58.895Z,6.95
2023-04-06T02:46:38.085Z,7.15
2023-04-06T02:49:07.768Z,7.25
2023-04-06T02:51:37.919Z,7.50
2023-04-06T02:54:33.383Z,7.90
2023-04-06T02:57:05.498Z,8.02
2023-04-06T02:59:45.192Z,9.43
2023-04-06T03:02:29.893Z,9.85
2023-04-06T03:05:07.947Z,9.30
2023-04-06T03:07:40.609Z,10.05
2023-04-06T03:10:14.696Z,9.25
2023-04-06T03:12:43.803Z,7.78
2023-04-06T03:15:24.005Z,9.45
2023-04-06T03:18:00.227Z,9.07
2023-04-06T03:20:43.439Z,9.85
2023-04-06T03:23:15.684Z,10.02
2023-04-06T03:25:46.588Z,10.07
2023-04-06T03:28:19.513Z,10.52
2023-04-06T03:30:55.307Z,10.93
2023-04-06T03:34:00.259Z,10.27
2023-04-06T03:36:34.198Z,11.07
2023-04-06T03:39:05.363Z,12.18
2023-04-06T03:41:37.627Z,10.07
2023-04-06T03:44:22.148Z,11.32
2023-04-06T03:46:52.561Z,11.05
2023-04-06T03:49:22.703Z,10.98
2023-04-06T03:51:55.712Z,11.48
2023-04-06T03:54:25.375Z,12.23
2023-04-06T03:56:54.552Z,11.48
2023-04-06T03:59:23.904Z,12.82
2023-04-06T04:01:56.923Z,11.50
2023-04-06T04:04:26.382Z,12.35
2023-04-06T04:06:55.578Z,13.60
2023-04-06T04:09:24.672Z,11.13
2023-04-06T04:11:53.813Z,11.75
2023-04-06T04:14:23.952Z,11.70
2023-04-06T04:16:52.908Z,12.45
2023-04-06T04:19:23.711Z,12.20
2023-04-06T04:21:53.040Z,12.80
2023-04-06T04:24:29.332Z,12.73
2023-04-06T04:26:58.689Z,13.25
2023-04-06T04:29:28.046Z,12.52
2023-04-06T04:32:00.306Z,12.90
2023-04-06T04:34:31.145Z,12.57
2023-04-06T04:37:00.398Z,11.52
2023-04-06T04:39:44.399Z,12.27
2023-04-06T04:42:14.376Z,11.23
2023-04-06T04:44:49.053Z,12.45
2023-04-06T04:47:23.668Z,12.50
2023-04-06T04:49:53.992Z,11.48
2023-04-06T04:52:26.003Z,11.57
2023-04-06T04:55:19.104Z,13.27
2023-04-06T04:57:51.482Z,11.93
2023-04-06T05:00:25.272Z,10.82
2023-04-06T05:02:58.640Z,10.10
2023-04-06T05:05:32.318Z,11.13
2023-04-06T05:08:02.592Z,12.07
2023-04-06T05:10:51.958Z,10.93
2023-04-06T05:13:22.103Z,10.77
2023-04-06T05:15:54.222Z,10.10
2023-04-06T05:18:30.636Z,10.15
2023-04-06T05:21:01.955Z,10.70
2023-04-06T05:26:19.985Z,9.57
2023-04-06T05:28:49.350Z,10.10
2023-04-06T05:31:21.300Z,10.23
2023-04-06T05:33:52.992Z,8.95
2023-04-06T05:36:36.852Z,8.13
2023-04-06T05:39:13.451Z,8.55
2023-04-06T05:41:48.622Z,9.05
2023-04-06T05:44:20.089Z,9.25
2023-04-06T05:46:55.175Z,8.50
2023-04-06T05:49:24.457Z,7.57
2023-04-06T05:51:54.958Z,7.85
2023-04-06T05:54:24.780Z,7.95
2023-04-06T05:56:59.088Z,7.45
2023-04-06T05:59:28.308Z,7.80
2023-04-06T06:01:57.067Z,6.80
2023-04-06T06:04:26.409Z,8.05
2023-04-06T06:06:58.962Z,7.53
2023-04-06T06:09:37.451Z,6.57
2023-04-06T06:12:26.478Z,7.38
2023-04-06T06:14:57.052Z,6.47
2023-04-06T06:17:28.427Z,7.57
2023-04-06T06:19:58.238Z,5.85
2023-04-06T06:22:31.261Z,7.57
2023-04-06T06:25:00.685Z,6.55
2023-04-06T06:27:30.563Z,6.57
2023-04-06T06:29:59.738Z,5.75
2023-04-06T06:34:59.248Z,5.97
2023-04-06T06:37:29.268Z,5.95
2023-04-06T06:40:02.868Z,6.70
2023-04-06T06:42:34.233Z,5.78
2023-04-06T06:45:17.927Z,8.13
2023-04-06T06:47:47.404Z,5.33
2023-04-06T06:50:16.822Z,5.28
2023-04-06T06:52:45.925Z,5.50
2023-04-06T06:55:16.624Z,5.03
2023-04-06T06:57:47.439Z,4.72
2023-04-06T07:00:18.013Z,5.13
2023-04-06T07:02:49.770Z,5.32
2023-04-06T07:05:27.402Z,4.70
2023-04-06T07:07:59.074Z,4.88
2023-04-06T07:10:30.400Z,4.15
2023-04-06T07:12:59.861Z,4.07
2023-04-06T07:15:29.233Z,4.90
2023-04-06T07:17:58.548Z,4.07
2023-04-06T07:20:29.214Z,4.85
2023-04-06T07:22:58.030Z,5.07
2023-04-06T07:25:27.248Z,5.35
2023-04-06T07:27:57.878Z,4.40
2023-04-06T07:30:31.702Z,4.55
2023-04-06T07:33:02.650Z,4.43
2023-04-06T07:35:32.446Z,4.72
2023-04-06T07:38:02.094Z,5.40
2023-04-06T07:40:32.930Z,4.43
2023-04-06T07:43:03.721Z,4.38
2023-04-06T07:45:34.246Z,4.93
2023-04-06T07:48:04.880Z,4.38
2023-04-06T07:50:35.339Z,4.20
2023-04-06T07:53:05.405Z,4.22
2023-04-06T07:55:34.375Z,3.97
2023-04-06T07:58:04.936Z,4.25
2023-04-06T08:00:34.188Z,4.90
2023-04-06T08:03:04.137Z,4.88
2023-04-06T08:05:33.401Z,5.00
2023-04-06T08:08:02.669Z,4.90
2023-04-06T08:10:32.902Z,4.38
2023-04-06T08:13:02.139Z,4.30
2023-04-06T08:15:32.802Z,4.15
2023-04-06T08:18:02.200Z,4.82
2023-04-06T08:20:31.603Z,3.78
2023-04-06T08:23:00.931Z,4.80
2023-04-06T08:25:29.796Z,3.92
2023-04-06T08:27:59.048Z,4.30
2023-04-06T08:30:28.470Z,4.57
2023-04-06T08:32:59.033Z,4.87
2023-04-06T08:37:57.304Z,5.47
2023-04-06T08:40:26.617Z,4.72
2023-04-06T08:42:58.226Z,4.38
2023-04-06T08:45:27.379Z,4.05
2023-04-06T08:47:58.505Z,4.57
2023-04-06T08:50:27.691Z,4.57
2023-04-06T08:52:56.869Z,4.05
2023-04-06T08:55:26.557Z,4.77
2023-04-06T08:57:56.930Z,4.28
2023-04-06T09:00:28.654Z,4.50
2023-04-06T09:03:00.655Z,4.53
2023-04-06T09:05:30.148Z,4.93
2023-04-06T09:07:59.803Z,5.63
2023-04-06T09:10:28.996Z,4.97
2023-04-06T09:13:06.203Z,5.35
2023-04-06T09:15:35.904Z,4.95
2023-04-06T09:18:07.015Z,4.75
2023-04-06T09:20:36.465Z,4.80
2023-04-06T09:23:05.546Z,5.70
2023-04-06T09:25:34.483Z,5.45
2023-04-06T09:28:04.819Z,5.25
2023-04-06T09:30:34.235Z,5.85
2023-04-06T09:33:03.445Z,4.57
2023-04-06T09:35:34.231Z,5.05
2023-04-06T09:38:13.466Z,5.50
2023-04-06T09:41:00.686Z,5.38
2023-04-06T09:43:32.472Z,6.05
2023-04-06T09:46:05.160Z,5.65
2023-04-06T09:48:37.425Z,5.25
2023-04-06T09:51:09.378Z,4.93
2023-04-06T09:53:40.514Z,5.07
2023-04-06T09:56:12.141Z,4.80
2023-04-06T09:58:43.184Z,5.03
2023-04-06T10:01:14.550Z,5.18
2023-04-06T10:03:55.631Z,4.97
2023-04-06T10:06:28.455Z,4.95
2023-04-06T10:08:59.367Z,5.00
2023-04-06T10:11:28.782Z,5.18
2023-04-06T10:13:58.483Z,6.15
2023-04-06T10:16:29.215Z,5.28
2023-04-06T10:19:04.835Z,5.30
2023-04-06T10:21:36.714Z,5.03
2023-04-06T10:24:13.390Z,5.47
2023-04-06T10:26:42.582Z,5.03
2023-04-06T10:29:11.883Z,5.50
2023-04-06T10:31:45.633Z,5.63
2023-04-06T10:34:15.815Z,5.78
2023-04-06T10:36:47.027Z,5.22
2023-04-06T10:39:16.686Z,6.07
2023-04-06T10:41:49.346Z,5.97
2023-04-06T10:44:23.458Z,7.22
2023-04-06T10:46:56.632Z,7.45
2023-04-06T10:49:27.867Z,7.32
2023-04-06T10:51:59.313Z,6.25
2023-04-06T10:54:29.594Z,6.00
2023-04-06T10:56:58.897Z,6.13
2023-04-06T10:59:28.267Z,6.03
2023-04-06T11:01:57.133Z,5.80
2023-04-06T11:04:27.271Z,6.68
2023-04-06T11:09:28.628Z,5.85
2023-04-06T11:11:58.126Z,6.38
2023-04-06T11:14:28.498Z,5.78
2023-04-06T11:16:57.738Z,6.30
2023-04-06T11:19:27.541Z,6.05
2023-04-06T11:21:59.886Z,6.83
2023-04-06T11:24:29.420Z,6.90
2023-04-06T11:27:02.123Z,6.60
2023-04-06T11:29:32.767Z,7.30
2023-04-06T11:32:03.437Z,7.32
2023-04-06T11:37:06.941Z,8.13
2023-04-06T11:39:43.292Z,7.40
2023-04-06T11:42:12.694Z,7.35
2023-04-06T11:44:43.849Z,6.57
2023-04-06T11:47:15.200Z,8.25
2023-04-06T11:49:45.939Z,7.78
2023-04-06T11:52:20.342Z,8.00
2023-04-06T11:54:50.788Z,8.65
2023-04-06T11:57:21.453Z,8.23
2023-04-06T11:59:50.985Z,7.97
2023-04-06T12:02:20.115Z,7.17
2023-04-06T12:04:48.965Z,8.05
2023-04-06T12:07:19.525Z,8.52
2023-04-06T12:09:49.044Z,7.93
2023-04-06T12:12:18.343Z,8.13
2023-04-06T12:14:47.880Z,8.55
2023-04-06T12:17:20.129Z,8.40
2023-04-06T12:19:48.878Z,8.25
2023-04-06T12:22:20.459Z,7.28
2023-04-06T12:24:49.525Z,8.23
2023-04-06T12:27:18.474Z,8.15
2023-04-06T12:29:47.594Z,7.38
2023-04-06T12:32:16.924Z,7.32
2023-04-06T12:34:45.756Z,6.30
2023-04-06T12:37:15.007Z,7.47
2023-04-06T12:39:46.622Z,6.43
2023-04-06T12:42:16.656Z,6.13
2023-04-06T12:44:45.956Z,6.80
2023-04-06T12:47:15.192Z,6.47
2023-04-06T12:49:44.011Z,7.60
2023-04-06T12:52:13.671Z,7.50
2023-04-06T12:54:45.976Z,8.02
2023-04-06T12:57:16.337Z,7.15
2023-04-06T13:02:15.347Z,6.68
2023-04-06T13:04:44.440Z,6.57
2023-04-06T13:07:13.784Z,6.00
2023-04-06T13:09:43.015Z,7.32
2023-04-06T13:12:13.803Z,5.78
2023-04-06T13:14:43.040Z,6.35
2023-04-06T13:17:12.206Z,6.10
2023-04-06T13:19:41.050Z,6.95
2023-04-06T13:22:10.542Z,6.07
2023-04-06T13:24:39.734Z,6.32
2023-04-06T13:27:08.934Z,6.30
2023-04-06T13:29:39.435Z,6.05
2023-04-06T13:32:11.026Z,6.05
2023-04-06T13:34:39.928Z,6.03
2023-04-06T13:37:08.959Z,5.68
2023-04-06T13:39:38.075Z,7.22
2023-04-06T13:42:07.806Z,6.53
2023-04-06T13:44:38.404Z,6.97
2023-04-06T13:47:08.178Z,6.75
2023-04-06T13:49:37.692Z,6.72
2023-04-06T13:52:07.074Z,4.63
2023-04-06T13:54:36.217Z,6.20
2023-04-06T13:57:05.824Z,5.95
2023-04-06T13:59:35.878Z,6.22
2023-04-06T14:02:06.788Z,7.05
2023-04-06T14:04:36.065Z,7.18
2023-04-06T14:07:08.312Z,6.53
2023-04-06T14:09:37.457Z,6.88
2023-04-06T14:12:06.703Z,6.50
2023-04-06T14:14:35.827Z,6.57
2023-04-06T14:17:06.328Z,5.75
2023-04-06T14:19:35.580Z,6.40
2023-04-06T14:22:05.197Z,6.90
2023-04-06T14:24:34.266Z,6.97
2023-04-06T14:27:03.760Z,6.15
2023-04-06T14:29:32.751Z,6.37
2023-04-06T14:32:01.954Z,6.85
2023-04-06T14:34:32.039Z,5.82
2023-04-06T14:37:02.238Z,6.70
2023-04-06T14:39:31.350Z,6.65
2023-04-06T14:42:00.719Z,6.90
2023-04-06T14:44:29.773Z,6.28
2023-04-06T14:46:58.812Z,6.90
2023-04-06T14:49:27.421Z,5.93
2023-04-06T14:51:58.512Z,6.15
2023-04-06T14:54:27.727Z,6.47
2023-04-06T14:56:57.929Z,7.75
2023-04-06T15:01:55.571Z,8.55
2023-04-06T15:04:24.750Z,8.30
2023-04-06T15:06:53.865Z,8.20
2023-04-06T15:09:24.629Z,8.00
2023-04-06T15:11:53.536Z,7.32
2023-04-06T15:14:22.565Z,7.95
2023-04-06T15:16:51.119Z,8.30
2023-04-06T15:19:20.113Z,7.50
2023-04-06T15:21:48.988Z,7.22
2023-04-06T15:24:18.079Z,7.80
2023-04-06T15:26:48.555Z,8.48
2023-04-06T15:29:17.602Z,7.32
2023-04-06T15:31:47.218Z,8.30
2023-04-06T15:34:16.562Z,7.22
2023-04-06T15:36:46.899Z,7.97
2023-04-06T15:39:15.976Z,7.03
2023-04-06T15:41:45.052Z,7.22
2023-04-06T15:44:16.027Z,7.82
2023-04-06T15:46:44.770Z,8.23
2023-04-06T15:49:13.902Z,7.40
2023-04-06T15:51:43.224Z,8.07
2023-04-06T15:54:12.290Z,7.93
2023-04-06T15:56:41.277Z,8.40
2023-04-06T15:59:10.461Z,8.07
2023-04-06T16:01:42.499Z,8.15
2023-04-06T16:04:12.605Z,8.75
2023-04-06T16:06:41.846Z,8.52
2023-04-06T16:09:10.812Z,8.13
2023-04-06T16:11:39.852Z,7.93
2023-04-06T16:14:10.083Z,8.23
2023-04-06T16:16:40.109Z,9.27
2023-04-06T16:19:09.199Z,9.35
2023-04-06T16:21:39.257Z,9.80
2023-04-06T16:24:08.712Z,9.35
2023-04-06T16:26:37.745Z,9.48
2023-04-06T16:29:06.961Z,8.98
2023-04-06T16:31:35.611Z,9.13
2023-04-06T16:34:06.171Z,9.85
2023-04-06T16:36:35.841Z,9.77
2023-04-06T16:39:05.069Z,9.52
2023-04-06T16:41:34.390Z,9.60
2023-04-06T16:44:03.636Z,9.00
2023-04-06T16:46:32.573Z,9.05
2023-04-06T16:49:01.778Z,9.65
2023-04-06T16:51:32.941Z,11.13
2023-04-06T16:54:02.494Z,9.82
2023-04-06T16:56:31.914Z,8.43
2023-04-06T16:59:00.985Z,9.45
2023-04-06T17:01:30.544Z,9.30
2023-04-06T17:03:59.960Z,9.50
2023-04-06T17:06:29.477Z,8.93
2023-04-06T17:09:01.434Z,8.68
2023-04-06T17:11:43.815Z,9.50
2023-04-06T17:14:19.250Z,9.35
2023-04-06T17:16:48.374Z,11.27
2023-04-06T17:19:17.463Z,12.15
2023-04-06T17:21:46.580Z,11.38
2023-04-06T17:24:17.169Z,11.52
2023-04-06T17:26:46.244Z,11.13
2023-04-06T17:29:15.877Z,10.38
2023-04-06T17:31:45.645Z,10.85
2023-04-06T17:34:14.669Z,10.55
2023-04-06T17:36:43.780Z,10.15
2023-04-06T17:39:12.952Z,10.00
2023-04-06T17:41:43.632Z,10.77
2023-04-06T17:44:12.935Z,11.40
2023-04-06T17:46:41.811Z,11.25
2023-04-06T17:49:11.095Z,11.47
2023-04-06T17:51:40.512Z,12.60
2023-04-06T17:54:09.591Z,12.20
2023-04-06T17:56:38.840Z,12.55
2023-04-06T17:59:11.617Z,11.13
2023-04-06T18:01:41.447Z,12.13
2023-04-06T18:04:10.748Z,13.25
2023-04-06T18:06:41.130Z,13.45
2023-04-06T18:09:10.828Z,14.33
2023-04-06T18:11:41.780Z,13.63
2023-04-06T18:14:16.357Z,14.67
2023-04-06T18:16:46.824Z,13.15
2023-04-06T18:19:17.162Z,13.88
2023-04-06T18:21:46.322Z,11.63
2023-04-06T18:24:27.371Z,12.88
2023-04-06T18:27:06.647Z,13.97
2023-04-06T18:29:37.267Z,15.20
2023-04-06T18:32:07.985Z,14.23
2023-04-06T18:34:37.434Z,14.15
2023-04-06T18:37:06.658Z,13.87
2023-04-06T18:39:37.799Z,14.27
2023-04-06T18:42:07.393Z,13.35
2023-04-06T18:44:37.837Z,13.73
2023-04-06T18:47:07.747Z,13.57
2023-04-06T18:49:36.563Z,14.40
2023-04-06T18:52:06.930Z,15.93
2023-04-06T18:57:05.022Z,14.95
2023-04-06T18:59:34.382Z,16.42
2023-04-06T19:02:05.012Z,15.80
2023-04-06T19:04:33.995Z,16.02
2023-04-06T19:07:03.252Z,14.82
2023-04-06T19:09:32.303Z,15.82
2023-04-06T19:12:01.535Z,14.52
2023-04-06T19:14:33.062Z,14.68
2023-04-06T19:17:02.316Z,15.38
2023-04-06T19:19:32.463Z,14.95
2023-04-06T19:22:02.024Z,16.15
2023-04-06T19:24:31.139Z,17.13
2023-04-06T19:27:00.295Z,16.08
2023-04-06T19:29:29.354Z,15.60
2023-04-06T19:31:59.568Z,15.63
2023-04-06T19:34:28.742Z,15.45
2023-04-06T19:36:59.212Z,15.60
2023-04-06T19:39:28.424Z,14.90
2023-04-06T19:41:58.631Z,15.48
2023-04-06T19:44:27.768Z,16.00
2023-04-06T19:46:56.385Z,15.30
2023-04-06T19:49:28.447Z,13.95
2023-04-06T19:51:59.033Z,13.13
2023-04-06T19:54:28.330Z,13.40
2023-04-06T19:56:57.303Z,14.77
2023-04-06T19:59:26.273Z,13.57
2023-04-06T20:01:54.991Z,12.25
2023-04-06T20:04:25.271Z,13.13
2023-04-06T20:06:54.778Z,13.00
2023-04-06T20:09:25.390Z,13.13
2023-04-06T20:11:55.491Z,12.60
2023-04-06T20:14:24.654Z,13.48
2023-04-06T20:16:54.237Z,12.25
2023-04-06T20:19:23.650Z,13.05
2023-04-06T20:21:52.651Z,13.60
2023-04-06T20:24:21.909Z,11.70
2023-04-06T20:26:53.009Z,12.70
2023-04-06T20:29:22.126Z,12.75
2023-04-06T20:31:51.049Z,13.38
2023-04-06T20:34:20.414Z,13.85
2023-04-06T20:36:49.965Z,14.85
2023-04-06T20:39:19.101Z,14.05
2023-04-06T20:41:48.482Z,15.55
2023-04-06T20:44:19.111Z,14.15
2023-04-06T20:49:18.504Z,15.00
2023-04-06T20:51:48.583Z,14.57
2023-04-06T20:54:17.847Z,15.07
2023-04-06T20:56:47.455Z,14.10
2023-04-06T20:59:16.478Z,15.43
2023-04-06T21:01:46.593Z,15.68
2023-04-06T21:04:16.058Z,15.82
2023-04-06T21:06:45.427Z,15.45
2023-04-06T21:09:14.741Z,16.42
2023-04-06T21:11:43.747Z,15.30
2023-04-06T21:14:12.840Z,17.02
2023-04-06T21:16:42.063Z,16.88
2023-04-06T21:19:12.620Z,17.75
2023-04-06T21:21:41.698Z,18.45
2023-04-06T21:24:10.742Z,18.67
2023-04-06T21:26:39.781Z,18.98
2023-04-06T21:29:09.114Z,19.23
2023-04-06T21:31:41.931Z,19.23
2023-04-06T21:34:13.656Z,20.55
2023-04-06T21:36:43.348Z,18.20
2023-04-06T21:39:12.309Z,18.87
2023-04-06T21:41:41.624Z,20.63
2023-04-06T21:44:10.602Z,20.83
2023-04-06T21:46:39.136Z,19.92
2023-04-06T21:49:08.239Z,21.00
2023-04-06T21:51:38.741Z,21.35
2023-04-06T21:54:07.850Z,23.60
2023-04-06T21:56:36.819Z,22.33
2023-04-06T21:59:06.034Z,22.88
2023-04-06T22:01:34.612Z,22.98
2023-04-06T22:04:28.310Z,23.15
2023-04-06T22:06:58.755Z,22.45
2023-04-06T22:11:56.370Z,22.40
2023-04-06T22:14:25.884Z,31.83
2023-04-06T22:16:54.795Z,25.63
2023-04-06T22:19:23.843Z,27.17
2023-04-06T22:21:52.735Z,23.75
2023-04-06T22:24:23.062Z,24.70
2023-04-06T22:26:52.070Z,24.95
2023-04-06T22:29:20.988Z,25.55
2023-04-06T22:31:49.616Z,24.67
2023-04-06T22:34:18.844Z,27.33
2023-04-06T22:36:47.990Z,24.27
2023-04-06T22:39:17.278Z,25.55
2023-04-06T22:41:47.714Z,23.75
2023-04-06T22:44:16.973Z,25.00
2023-04-06T22:46:45.700Z,22.33
2023-04-06T22:49:14.885Z,21.58
2023-04-06T22:51:43.933Z,20.50
2023-04-06T22:54:13.352Z,20.98
2023-04-06T22:56:42.518Z,22.13
2023-04-06T22:59:12.876Z,23.63
2023-04-06T23:01:42.987Z,22.75
2023-04-06T23:04:12.138Z,22.52
2023-04-06T23:06:41.273Z,21.52
2023-04-06T23:09:10.400Z,22.73
2023-04-06T23:11:39.764Z,23.40
2023-04-06T23:14:08.922Z,23.13
2023-04-06T23:16:39.108Z,22.92
2023-04-06T23:19:09.398Z,21.77
2023-04-06T23:21:38.631Z,22.52
2023-04-06T23:24:07.711Z,21.23
2023-04-06T23:26:36.712Z,23.60
2023-04-06T23:29:05.637Z,22.45
2023-04-06T23:31:34.197Z,22.67
2023-04-06T23:34:05.076Z,23.95
2023-04-06T23:36:34.345Z,23.23
2023-04-06T23:39:03.442Z,22.60
2023-04-06T23:41:32.331Z,20.90
2023-04-06T23:44:01.279Z,23.25
2023-04-06T23:46:30.038Z,21.88
2023-04-06T23:48:58.988Z,24.17
2023-04-06T23:51:29.399Z,25.35
2023-04-06T23:56:27.525Z,24.88
2023-04-06T23:58:56.092Z,25.35
